Time;durP1;ratioP1;P1;durP2;ratioP2;P2;SDS_P1;SDS_P2;PMS_P1;PMS_P2;Temp;Humidity;BMP_temperature;BMP_pressure;BME280_temperature;BME280_humidity;BME280_pressure;Samples;Min_cycle;Max_cycle;Signal;HPM_P1;HPM_P2
2022/09/06 00:00:36;;;;;;;4.20;3.80;;;;;;;16.83;67.34;95565.47;5055694;28;20228;-72
2022/09/06 00:03:03;;;;;;;4.50;4.10;;;;;;;16.81;67.11;95578.16;5055935;28;20194;-72
2022/09/06 00:05:32;;;;;;;4.20;3.80;;;;;;;16.79;67.65;95580.53;5055660;28;20602;-72
2022/09/06 00:07:59;;;;;;;4.20;3.80;;;;;;;16.79;67.76;95572.97;5055088;28;20244;-72
2022/09/06 00:10:25;;;;;;;4.20;3.83;;;;;;;16.79;67.67;95574.97;5055821;28;20251;-72
2022/09/06 00:12:54;;;;;;;3.95;3.55;;;;;;;16.77;67.74;95578.13;5056059;28;20209;-72
2022/09/06 00:15:21;;;;;;;4.57;4.05;;;;;;;16.73;67.50;95579.22;5055698;28;20204;-72
2022/09/06 00:17:48;;;;;;;4.40;4.00;;;;;;;16.72;67.52;95572.06;5055408;28;20240;-72
2022/09/06 00:20:15;;;;;;;4.38;3.97;;;;;;;16.77;67.04;95577.31;5055436;28;20210;-72
2022/09/06 00:22:42;;;;;;;4.30;3.88;;;;;;;16.81;67.18;95576.19;5056244;28;20193;-72
2022/09/06 00:25:09;;;;;;;3.67;3.40;;;;;;;16.83;67.04;95575.81;5055576;28;20198;-72
2022/09/06 00:27:36;;;;;;;4.05;3.65;;;;;;;16.82;67.36;95574.22;5055173;28;20209;-71
2022/09/06 00:30:06;;;;;;;4.40;3.97;;;;;;;16.75;67.08;95568.56;5055005;28;20211;-71
2022/09/06 00:32:33;;;;;;;3.78;3.47;;;;;;;16.71;66.87;95562.91;5055111;28;20208;-72
2022/09/06 00:35:00;;;;;;;4.78;3.72;;;;;;;16.66;66.99;95562.44;5055486;28;20190;-71
2022/09/06 00:37:26;;;;;;;4.05;3.65;;;;;;;16.64;67.89;95570.38;5055387;28;20194;-71
2022/09/06 00:39:53;;;;;;;4.60;3.90;;;;;;;16.64;67.64;95562.03;5055000;28;20194;-71
2022/09/06 00:42:20;;;;;;;4.32;3.90;;;;;;;16.62;67.30;95565.19;5055793;28;20194;-71
2022/09/06 00:44:47;;;;;;;4.40;4.00;;;;;;;16.61;67.73;95566.38;5055073;28;20197;-71
2022/09/06 00:50:01;;;;;;;4.07;3.78;;;;;;;16.52;67.70;95566.69;5055764;28;20204;-71
2022/09/06 00:52:29;;;;;;;4.75;4.05;;;;;;;16.47;68.09;95571.78;5054436;28;20198;-71
2022/09/06 00:54:56;;;;;;;3.88;3.58;;;;;;;16.46;67.88;95570.16;5055431;28;20200;-71
2022/09/06 00:57:25;;;;;;;4.25;3.95;;;;;;;16.47;67.58;95569.78;5054675;28;20204;-71
2022/09/06 00:59:53;;;;;;;3.65;3.40;;;;;;;16.47;67.34;95572.56;5055590;28;20213;-71
2022/09/06 01:02:21;;;;;;;4.60;3.60;;;;;;;16.42;67.47;95574.91;5054863;28;20220;-72
2022/09/06 01:04:50;;;;;;;3.78;3.47;;;;;;;16.36;67.45;95574.41;5055528;28;20182;-72
2022/09/06 01:07:24;;;;;;;3.92;3.63;;;;;;;16.31;67.77;95574.75;5054530;28;20234;-72
2022/09/06 01:10:01;;;;;;;4.07;3.78;;;;;;;16.31;68.06;95572.78;5054457;28;20208;-72
2022/09/06 01:12:41;;;;;;;4.03;3.63;;;;;;;16.29;67.69;95577.09;5055286;28;20527;-72
2022/09/06 01:15:17;;;;;;;4.25;3.55;;;;;;;16.26;68.37;95569.50;5054776;28;20204;-72
2022/09/06 01:17:57;;;;;;;4.90;3.80;;;;;;;16.24;68.14;95569.91;5054615;28;20296;-72
2022/09/06 01:20:32;;;;;;;5.72;3.33;;;;;;;16.29;68.06;95574.31;5054027;28;20218;-72
2022/09/06 01:23:31;;;;;;;4.68;3.78;;;;;;;16.27;68.17;95574.72;5054811;28;20209;-72
2022/09/06 01:26:05;;;;;;;4.00;3.60;;;;;;;16.28;67.86;95569.94;5054053;28;20193;-72
2022/09/06 01:28:36;;;;;;;4.72;3.60;;;;;;;16.26;67.80;95573.09;5054609;28;20202;-71
2022/09/06 01:31:16;;;;;;;4.50;3.70;;;;;;;16.24;68.14;95571.88;5054667;28;20197;-71
2022/09/06 01:33:48;;;;;;;4.35;4.00;;;;;;;16.21;68.27;95572.63;5053892;28;20203;-71
2022/09/06 01:36:18;;;;;;;3.85;3.55;;;;;;;16.20;68.27;95576.59;5054417;28;20217;-71
2022/09/06 01:38:45;;;;;;;4.15;3.75;;;;;;;16.15;68.22;95560.22;5054002;28;20197;-71
2022/09/06 01:41:12;;;;;;;3.80;3.50;;;;;;;16.11;68.46;95566.53;5054124;28;20229;-71
2022/09/06 01:43:41;;;;;;;4.53;4.13;;;;;;;16.10;68.64;95561.34;5053883;28;20194;-71
2022/09/06 01:46:15;;;;;;;3.97;3.65;;;;;;;16.09;68.20;95554.19;5054024;28;20212;-72
2022/09/06 01:48:56;;;;;;;4.05;3.65;;;;;;;16.05;67.96;95553.31;5053707;28;20200;-72
2022/09/06 01:51:29;;;;;;;3.80;3.50;;;;;;;15.97;68.21;95552.41;5054451;28;20208;-72
2022/09/06 01:54:06;;;;;;;3.95;3.65;;;;;;;15.92;68.36;95554.72;5053988;28;20515;-72
2022/09/06 01:56:39;;;;;;;3.78;3.38;;;;;;;15.86;68.11;95548.69;5054944;28;20190;-72
2022/09/06 01:59:25;;;;;;;4.88;3.70;;;;;;;15.85;68.60;95545.09;5054185;28;20213;-72
2022/09/06 02:01:59;;;;;;;4.60;3.88;;;;;;;15.85;68.57;95544.31;5054470;28;20220;-72
2022/09/06 02:04:28;;;;;;;4.15;3.45;;;;;;;15.84;68.50;95545.50;5054903;28;20544;-72
2022/09/06 02:06:59;;;;;;;4.03;3.65;;;;;;;15.86;69.25;95543.13;5057622;28;20230;-72
2022/09/06 02:09:27;;;;;;;4.13;3.47;;;;;;;15.86;69.11;95545.91;5058510;28;20529;-73
2022/09/06 02:11:57;;;;;;;3.95;3.55;;;;;;;15.82;68.98;95548.63;5058617;28;20186;-72
2022/09/06 02:14:29;;;;;;;4.40;4.00;;;;;;;15.80;69.20;95545.44;5057793;28;20625;-72
2022/09/06 02:16:57;;;;;;;4.47;3.97;;;;;;;15.79;69.35;95543.81;5058731;28;20185;-72
2022/09/06 02:19:29;;;;;;;3.72;3.42;;;;;;;15.84;68.95;95545.50;5058365;28;20185;-72
2022/09/06 02:21:59;;;;;;;4.30;3.83;;;;;;;15.85;68.54;95544.31;5058379;28;20217;-72
2022/09/06 02:24:29;;;;;;;4.63;3.70;;;;;;;15.83;69.18;95544.69;5057550;28;20209;-72
2022/09/06 02:26:56;;;;;;;4.50;4.20;;;;;;;15.83;69.07;95546.66;5058420;28;20255;-72
2022/09/06 02:29:24;;;;;;;4.47;4.07;;;;;;;15.81;69.00;95549.81;5057732;28;20217;-72
2022/09/06 02:31:54;;;;;;;4.90;3.95;;;;;;;15.79;69.14;95549.38;5058363;28;20201;-72
2022/09/06 02:34:21;;;;;;;4.07;3.78;;;;;;;15.77;69.16;95551.75;5058272;28;20210;-72
2022/09/06 02:36:48;;;;;;;4.18;3.88;;;;;;;15.77;68.92;95551.75;5057474;28;20194;-72
2022/09/06 02:39:15;;;;;;;4.40;3.95;;;;;;;15.74;68.91;95552.50;5057225;28;20202;-72
2022/09/06 02:41:43;;;;;;;4.20;3.90;;;;;;;15.72;68.53;95551.25;5057385;28;20224;-72
2022/09/06 02:44:10;;;;;;;4.03;3.55;;;;;;;15.68;68.56;95556.75;5056994;28;20277;-72
2022/09/06 02:46:38;;;;;;;4.13;3.70;;;;;;;15.66;68.79;95559.13;5058095;28;20189;-72
2022/09/06 02:49:05;;;;;;;4.53;4.13;;;;;;;15.64;68.62;95561.44;5057587;28;20233;-72
2022/09/06 02:51:36;;;;;;;4.35;4.03;;;;;;;15.63;68.34;95560.63;5058096;28;20182;-72
2022/09/06 02:54:03;;;;;;;4.15;3.85;;;;;;;15.61;68.49;95559.41;5058020;28;20271;-72
2022/09/06 02:56:32;;;;;;;4.13;3.63;;;;;;;15.53;68.78;95552.13;5057523;28;20194;-72
2022/09/06 02:58:59;;;;;;;4.38;4.00;;;;;;;15.52;68.93;95551.31;5057009;28;20194;-72
2022/09/06 03:01:26;;;;;;;4.22;3.75;;;;;;;15.54;68.89;95549.00;5057070;28;20214;-72
2022/09/06 03:03:54;;;;;;;4.78;4.10;;;;;;;15.55;69.12;95552.56;5056892;28;20198;-72
2022/09/06 03:06:21;;;;;;;3.70;3.40;;;;;;;15.55;69.21;95544.22;5057736;28;20217;-72
2022/09/06 03:08:48;;;;;;;4.35;3.95;;;;;;;15.54;69.16;95554.56;5056795;28;20201;-72
2022/09/06 03:11:15;;;;;;;4.22;3.85;;;;;;;15.54;69.13;95550.94;5090241;28;20617;-72
2022/09/06 03:13:42;;;;;;;5.00;4.47;;;;;;;15.51;69.34;95552.50;5057519;28;20207;-72
2022/09/06 03:16:08;;;;;;;4.63;4.13;;;;;;;15.43;68.14;95549.97;5056395;28;20185;-72
2022/09/06 03:18:37;;;;;;;5.05;4.20;;;;;;;15.33;68.23;95551.44;5056514;28;20194;-72
2022/09/06 03:21:05;;;;;;;4.90;4.07;;;;;;;15.25;68.07;95555.22;5057556;28;20221;-72
2022/09/06 03:23:33;;;;;;;4.63;4.22;;;;;;;15.19;69.25;95559.50;5056254;28;20610;-72
2022/09/06 03:26:00;;;;;;;4.47;4.07;;;;;;;15.21;69.03;95557.94;5057284;28;20190;-72
2022/09/06 03:28:27;;;;;;;6.93;4.45;;;;;;;15.22;69.07;95559.59;5056618;28;20193;-72
2022/09/06 03:30:54;;;;;;;4.50;4.10;;;;;;;15.24;69.14;95557.22;5057229;28;20217;-72
2022/09/06 03:33:20;;;;;;;4.57;4.15;;;;;;;15.27;69.09;95559.25;5056587;28;20208;-72
2022/09/06 03:35:49;;;;;;;4.57;4.05;;;;;;;15.27;68.86;95569.56;5056375;28;20206;-72
2022/09/06 03:38:17;;;;;;;4.75;4.18;;;;;;;15.27;69.03;95573.16;5055862;28;20197;-72
2022/09/06 03:40:45;;;;;;;4.75;4.22;;;;;;;15.25;69.31;95578.28;5055919;28;20209;-72
2022/09/06 03:43:12;;;;;;;4.22;3.92;;;;;;;15.24;69.36;95573.88;5056394;28;20225;-72
2022/09/06 03:45:39;;;;;;;5.45;4.22;;;;;;;15.25;69.38;95574.69;5056286;28;20201;-72
2022/09/06 03:48:05;;;;;;;5.28;4.32;;;;;;;15.24;68.97;95573.88;5055861;28;20200;-72
2022/09/06 03:50:32;;;;;;;4.60;4.20;;;;;;;15.23;69.11;95571.50;5056081;28;20233;-72
2022/09/06 03:52:59;;;;;;;4.60;4.15;;;;;;;15.21;69.57;95580.19;5055644;28;20209;-72
2022/09/06 03:55:27;;;;;;;4.10;3.80;;;;;;;15.19;69.47;95578.97;5055957;28;20197;-73
2022/09/06 03:57:54;;;;;;;4.72;4.32;;;;;;;15.20;69.41;95581.38;5055597;28;20193;-72
2022/09/06 04:00:22;;;;;;;4.72;3.88;;;;;;;15.18;69.18;95578.16;5056506;28;20182;-72
2022/09/06 04:02:49;;;;;;;4.95;4.45;;;;;;;15.14;68.92;95580.88;5055865;28;20245;-71
2022/09/06 04:05:17;;;;;;;5.95;4.88;;;;;;;15.11;69.13;95589.16;5055742;28;20197;-71
2022/09/06 04:07:44;;;;;;;4.88;4.22;;;;;;;15.07;69.16;95588.25;5055668;28;20229;-71
2022/09/06 04:10:10;;;;;;;4.55;4.03;;;;;;;15.06;69.23;95587.47;5055221;28;20289;-71
2022/09/06 04:12:39;;;;;;;5.43;4.22;;;;;;;15.07;69.42;95583.53;5055699;28;20194;-71
2022/09/06 04:15:09;;;;;;;4.25;3.85;;;;;;;15.08;69.55;95585.13;5055380;28;20201;-72
2022/09/06 04:17:37;;;;;;;5.57;4.22;;;;;;;15.07;69.44;95577.97;5055127;28;20208;-71
2022/09/06 04:20:05;;;;;;;5.95;3.85;;;;;;;15.05;69.53;95582.28;5055159;28;20374;-71
2022/09/06 04:22:31;;;;;;;6.97;4.40;;;;;;;15.02;69.53;95578.25;5055072;28;20225;-72
2022/09/06 04:24:59;;;;;;;5.25;4.20;;;;;;;15.00;69.59;95574.28;5055273;28;20202;-71
2022/09/06 04:27:26;;;;;;;5.13;4.40;;;;;;;14.97;69.34;95581.34;5055075;28;20625;-72
2022/09/06 04:29:55;;;;;;;5.55;4.47;;;;;;;14.98;69.70;95579.38;5055139;28;20194;-72
2022/09/06 04:32:22;;;;;;;4.78;4.38;;;;;;;14.98;69.49;95576.59;5054795;28;20236;-72
2022/09/06 04:34:49;;;;;;;6.63;4.70;;;;;;;15.03;69.35;95581.84;5055335;28;20208;-72
2022/09/06 04:37:18;;;;;;;5.80;4.55;;;;;;;15.03;69.24;95577.13;5055570;28;20194;-72
2022/09/06 04:39:45;;;;;;;5.40;4.90;;;;;;;15.03;69.80;95582.66;5055066;28;20228;-72
2022/09/06 04:42:12;;;;;;;6.10;5.50;;;;;;;15.07;69.75;95583.53;5054876;28;20224;-72
2022/09/06 04:44:39;;;;;;;6.68;5.28;;;;;;;15.09;69.72;95581.16;5055176;28;20204;-72
2022/09/06 04:47:11;;;;;;;7.13;5.03;;;;;;;15.09;69.67;95581.16;5054687;28;20550;-72
2022/09/06 04:49:38;;;;;;;6.32;5.82;;;;;;;15.11;70.08;95580.81;5055098;28;20256;-72
2022/09/06 04:52:05;;;;;;;6.75;6.05;;;;;;;15.11;70.30;95576.06;5054806;28;20211;-72
2022/09/06 04:54:31;;;;;;;8.75;6.35;;;;;;;15.14;70.19;95580.88;5054619;28;20198;-72
2022/09/06 04:57:02;;;;;;;7.03;6.32;;;;;;;15.16;70.20;95577.72;5055313;28;20189;-73
2022/09/06 04:59:29;;;;;;;7.75;6.13;;;;;;;15.16;70.27;95581.31;5055125;28;20649;-71
2022/09/06 05:01:55;;;;;;;7.65;5.88;;;;;;;15.21;70.93;95577.41;5055519;28;20650;-70
2022/09/06 05:04:24;;;;;;;5.60;4.82;;;;;;;15.24;70.87;95578.66;5056207;28;20208;-72
2022/09/06 05:06:59;;;;;;;7.25;5.05;;;;;;;15.29;70.62;95576.38;5054702;28;20234;-72
2022/09/06 05:09:26;;;;;;;5.45;4.95;;;;;;;15.29;70.61;95579.16;5054531;28;20194;-72
2022/09/06 05:11:53;;;;;;;5.43;4.40;;;;;;;15.32;70.96;95583.16;5054192;28;20210;-72
2022/09/06 05:14:20;;;;;;;5.22;4.82;;;;;;;15.33;70.45;95577.22;5054215;28;20204;-72
2022/09/06 05:16:47;;;;;;;4.97;4.57;;;;;;;15.34;70.86;95569.69;5054804;28;20292;-72
2022/09/06 05:19:14;;;;;;;5.05;4.63;;;;;;;15.36;70.77;95575.69;5054846;28;20190;-72
2022/09/06 05:21:42;;;;;;;4.70;4.13;;;;;;;15.38;71.09;95578.91;5054066;28;20220;-72
2022/09/06 05:24:09;;;;;;;5.40;4.90;;;;;;;15.41;70.99;95586.50;5054107;28;20517;-72
2022/09/06 05:26:35;;;;;;;5.25;4.85;;;;;;;15.41;71.32;95573.41;5054514;28;20197;-72
2022/09/06 05:29:02;;;;;;;5.85;4.88;;;;;;;15.44;71.29;95574.63;5054165;28;20194;-72
2022/09/06 05:31:30;;;;;;;5.25;4.85;;;;;;;15.47;71.09;95571.13;5054945;28;20185;-72
2022/09/06 05:33:58;;;;;;;5.53;5.07;;;;;;;15.50;71.12;95567.56;5054356;28;20621;-73
2022/09/06 05:36:25;;;;;;;4.95;4.55;;;;;;;15.56;71.19;95568.88;5053926;28;20207;-72
2022/09/06 05:38:54;;;;;;;5.45;4.80;;;;;;;15.59;71.56;95567.31;5053400;28;20197;-72
2022/09/06 05:41:21;;;;;;;5.95;4.78;;;;;;;15.60;71.73;95577.25;5053820;28;20193;-72
2022/09/06 05:43:48;;;;;;;5.38;4.85;;;;;;;15.61;71.55;95579.69;5053945;28;20221;-72
2022/09/06 05:46:15;;;;;;;4.82;4.43;;;;;;;15.66;71.14;95575.81;5054248;28;20209;-73
2022/09/06 05:48:42;;;;;;;5.55;5.05;;;;;;;15.69;71.04;95575.06;5053682;28;20210;-73
2022/09/06 05:51:11;;;;;;;5.25;4.70;;;;;;;15.72;71.51;95579.06;5054498;28;20201;-72
2022/09/06 05:53:39;;;;;;;5.63;5.13;;;;;;;15.74;71.54;95573.94;5054060;28;20197;-72
2022/09/06 05:56:10;;;;;;;4.97;4.60;;;;;;;15.78;71.28;95569.22;5053951;28;20565;-72
2022/09/06 05:58:37;;;;;;;4.95;4.55;;;;;;;15.83;71.15;95566.94;5054267;28;20205;-72
2022/09/06 06:01:06;;;;;;;4.88;4.47;;;;;;;15.88;70.41;95563.81;5053642;28;20199;-72
2022/09/06 06:03:33;;;;;;;5.68;4.80;;;;;;;15.91;70.82;95553.94;5053908;28;20222;-72
2022/09/06 06:06:00;;;;;;;5.78;4.95;;;;;;;15.97;70.76;95566.31;5053722;28;20208;-72
2022/09/06 06:08:27;;;;;;;7.38;5.07;;;;;;;16.00;70.95;95562.78;5053488;28;20230;-72
2022/09/06 06:10:53;;;;;;;5.95;5.15;;;;;;;16.04;70.76;95562.84;5054764;28;20605;-72
2022/09/06 06:13:22;;;;;;;5.38;4.88;;;;;;;16.09;70.79;95549.41;5053424;28;20213;-72
2022/09/06 06:15:48;;;;;;;5.00;4.60;;;;;;;16.18;71.14;95556.69;5053721;28;20198;-72
2022/09/06 06:18:15;;;;;;;8.90;5.15;;;;;;;16.22;70.98;95549.97;5053897;28;20190;-72
2022/09/06 06:20:42;;;;;;;5.47;4.97;;;;;;;16.24;71.22;95541.25;5054327;28;20540;-71
2022/09/06 06:23:08;;;;;;;5.47;4.97;;;;;;;16.26;71.10;95547.25;5054978;28;20206;-72
2022/09/06 06:25:35;;;;;;;6.97;6.30;;;;;;;16.25;71.13;95540.88;5053333;28;20551;-72
2022/09/06 06:28:02;;;;;;;7.15;5.65;;;;;;;16.27;70.88;95558.00;5053594;28;20205;-72
2022/09/06 06:30:31;;;;;;;5.78;5.20;;;;;;;16.30;71.06;95548.09;5054013;28;20201;-73
2022/09/06 06:32:58;;;;;;;5.53;4.90;;;;;;;16.32;70.86;95548.53;5053475;28;20197;-73
2022/09/06 06:35:25;;;;;;;5.38;4.90;;;;;;;16.34;70.89;95546.97;5053648;28;20244;-72
2022/09/06 06:37:52;;;;;;;5.90;5.32;;;;;;;16.38;70.99;95544.22;5053389;28;20209;-71
2022/09/06 06:40:19;;;;;;;5.95;5.50;;;;;;;16.41;70.63;95542.66;5053818;28;20225;-73
2022/09/06 06:42:46;;;;;;;5.90;5.40;;;;;;;16.40;70.27;95553.00;5053852;28;20214;-73
2022/09/06 06:45:13;;;;;;;6.60;5.90;;;;;;;16.42;70.41;95542.28;5053843;28;20202;-72
2022/09/06 06:47:41;;;;;;;6.55;5.95;;;;;;;16.48;70.56;95545.53;5053313;28;20194;-72
2022/09/06 06:50:10;;;;;;;7.10;6.40;;;;;;;16.49;70.70;95545.16;5054908;28;20213;-72
2022/09/06 06:52:38;;;;;;;7.20;6.50;;;;;;;16.48;70.12;95543.53;5057804;28;20288;-71
2022/09/06 06:55:05;;;;;;;6.82;6.25;;;;;;;16.51;70.59;95548.34;5057693;28;20198;-72
2022/09/06 06:57:32;;;;;;;6.75;6.15;;;;;;;16.52;70.34;95538.84;5056433;28;20228;-72
2022/09/06 07:00:00;;;;;;;7.03;6.43;;;;;;;16.55;70.39;95546.41;5056969;28;20194;-72
2022/09/06 07:02:27;;;;;;;7.57;6.80;;;;;;;16.62;70.36;95548.47;5058000;28;20263;-72
2022/09/06 07:04:55;;;;;;;7.50;6.80;;;;;;;16.67;70.43;95541.78;5057970;28;20525;-72
2022/09/06 07:07:22;;;;;;;7.15;6.45;;;;;;;16.71;70.25;95540.63;5057114;28;20234;-72
2022/09/06 07:09:51;;;;;;;6.90;6.25;;;;;;;16.76;70.36;95547.88;5057343;28;20193;-72
2022/09/06 07:12:18;;;;;;;6.95;6.25;;;;;;;16.83;70.50;95551.53;5057926;28;20198;-72
2022/09/06 07:14:45;;;;;;;6.97;6.32;;;;;;;16.87;69.86;95545.19;5056715;28;20190;-72
2022/09/06 07:17:12;;;;;;;6.13;5.63;;;;;;;16.91;69.85;95559.97;5056723;28;20212;-72
2022/09/06 07:19:38;;;;;;;6.40;5.80;;;;;;;16.93;69.63;95552.84;5056542;28;20196;-72
2022/09/06 07:22:07;;;;;;;6.20;5.60;;;;;;;16.98;69.03;95549.69;5056623;28;20202;-72
2022/09/06 07:24:33;;;;;;;8.20;5.97;;;;;;;17.01;67.82;95553.72;5056508;28;20190;-72
2022/09/06 07:27:00;;;;;;;7.38;6.40;;;;;;;16.97;66.35;95556.47;5056592;28;20202;-72
2022/09/06 07:29:27;;;;;;;6.63;6.13;;;;;;;16.96;67.07;95556.84;5056228;28;20212;-72
2022/09/06 07:31:56;;;;;;;7.82;6.50;;;;;;;16.95;67.61;95560.81;5055951;28;20189;-72
2022/09/06 07:34:25;;;;;;;6.85;6.25;;;;;;;16.97;67.56;95552.88;5056516;28;20197;-71
2022/09/06 07:36:52;;;;;;;6.90;6.20;;;;;;;16.99;67.23;95556.06;5056453;28;20194;-72
2022/09/06 07:39:20;;;;;;;7.22;6.53;;;;;;;17.01;67.11;95553.72;5055991;28;20304;-72
2022/09/06 07:41:47;;;;;;;6.55;5.80;;;;;;;17.07;67.68;95561.34;5055878;28;20284;-72
2022/09/06 07:44:14;;;;;;;7.07;6.47;;;;;;;17.17;66.97;95557.03;5055992;28;20236;-72
2022/09/06 07:46:41;;;;;;;6.88;6.00;;;;;;;17.22;66.51;95551.13;5055991;28;20198;-72
2022/09/06 07:49:08;;;;;;;8.88;6.70;;;;;;;17.29;66.79;95548.41;5055765;28;20637;-73
2022/09/06 07:51:34;;;;;;;6.10;5.60;;;;;;;17.37;67.05;95546.47;5055939;28;20193;-72
2022/09/06 07:54:01;;;;;;;7.20;6.50;;;;;;;17.43;65.67;95546.91;5055747;28;20213;-72
2022/09/06 07:56:29;;;;;;;6.97;6.32;;;;;;;17.46;65.79;95546.16;5055650;28;20288;-72
2022/09/06 07:58:57;;;;;;;7.35;6.65;;;;;;;17.53;66.41;95549.00;5055978;28;20194;-72
2022/09/06 08:01:29;;;;;;;5.95;5.45;;;;;;;17.70;66.51;95539.97;5055777;28;20198;-72
2022/09/06 08:03:57;;;;;;;5.10;4.70;;;;;;;17.86;66.07;95545.28;5055123;28;20232;-72
2022/09/06 08:06:24;;;;;;;6.93;6.22;;;;;;;18.03;65.47;95543.78;5055836;28;20201;-72
2022/09/06 08:08:51;;;;;;;5.38;4.88;;;;;;;18.14;65.45;95543.84;5088955;28;20201;-72
2022/09/06 08:11:19;;;;;;;6.15;5.65;;;;;;;18.21;64.93;95538.31;5056505;28;20197;-72
2022/09/06 08:13:51;;;;;;;6.65;6.00;;;;;;;18.31;64.79;95539.56;5055723;28;20609;-72
2022/09/06 08:16:18;;;;;;;7.05;6.13;;;;;;;18.41;65.21;95538.78;5055546;28;20205;-72
2022/09/06 08:18:45;;;;;;;7.85;7.10;;;;;;;18.49;65.28;95537.66;5055656;28;20216;-72
2022/09/06 08:21:15;;;;;;;7.32;6.70;;;;;;;18.52;62.81;95534.88;5055059;28;20645;-72
2022/09/06 08:23:48;;;;;;;7.45;6.75;;;;;;;18.56;63.93;95536.88;5055620;28;20205;-72
2022/09/06 08:26:16;;;;;;;8.05;7.35;;;;;;;18.63;62.45;95534.13;5055014;28;20194;-72
2022/09/06 08:28:43;;;;;;;7.35;6.65;;;;;;;18.69;63.28;95529.72;5055352;28;20216;-72
2022/09/06 08:31:13;;;;;;;9.32;8.40;;;;;;;18.83;63.44;95534.59;5055367;28;20194;-72
2022/09/06 08:33:41;;;;;;;6.65;5.97;;;;;;;18.90;62.69;95529.81;5055013;28;20634;-72
2022/09/06 08:36:09;;;;;;;7.20;6.50;;;;;;;19.00;62.65;95520.66;5054778;28;20204;-72
2022/09/06 08:38:36;;;;;;;7.45;6.72;;;;;;;19.11;62.24;95522.69;5055411;28;20208;-72
2022/09/06 08:41:09;;;;;;;7.75;7.05;;;;;;;19.22;61.10;95515.91;5055307;28;20527;-72
2022/09/06 08:43:36;;;;;;;8.25;7.55;;;;;;;19.26;62.19;95515.13;5054915;28;20206;-72
2022/09/06 08:46:04;;;;;;;8.10;7.22;;;;;;;19.28;62.24;95521.09;5055107;28;20209;-72
2022/09/06 08:48:34;;;;;;;6.95;6.32;;;;;;;19.35;60.98;95515.50;5055167;28;20205;-72
2022/09/06 08:51:20;;;;;;;5.50;4.97;;;;;;;19.43;60.97;95508.72;5054525;28;20193;-72
2022/09/06 08:53:47;;;;;;;7.47;6.78;;;;;;;19.57;61.51;95503.13;5054833;28;20293;-72
2022/09/06 08:56:19;;;;;;;6.65;5.85;;;;;;;19.69;61.07;95499.16;5055458;28;20197;-72
2022/09/06 08:58:59;;;;;;;7.90;6.70;;;;;;;19.88;59.79;95495.13;5054498;28;20251;-72
2022/09/06 09:01:32;;;;;;;7.72;6.00;;;;;;;19.94;59.45;95499.91;5054718;28;20194;-71
2022/09/06 09:04:04;;;;;;;6.88;6.25;;;;;;;20.03;59.04;95496.66;5054501;28;20214;-72
2022/09/06 09:06:32;;;;;;;6.75;6.18;;;;;;;20.08;59.62;95484.25;5054388;28;20233;-72
2022/09/06 09:09:02;;;;;;;7.28;5.95;;;;;;;20.16;57.86;95483.84;5054301;28;20251;-71
2022/09/06 09:11:32;;;;;;;6.22;5.72;;;;;;;20.15;58.64;95481.44;5054811;28;20217;-71
2022/09/06 09:14:04;;;;;;;6.07;5.57;;;;;;;20.30;58.65;95473.78;5053316;28;20300;-72
2022/09/06 09:16:32;;;;;;;6.60;6.00;;;;;;;20.43;56.74;95467.31;5055405;28;20194;-72
2022/09/06 09:19:02;;;;;;;6.65;5.95;;;;;;;20.48;57.92;95463.31;5054352;28;20202;-72
2022/09/06 09:21:32;;;;;;;8.35;6.00;;;;;;;20.54;57.75;95466.50;5038089;28;20201;-71
2022/09/06 09:24:03;;;;;;;6.80;6.20;;;;;;;20.63;57.15;95456.44;5055239;28;20598;-72
2022/09/06 09:26:35;;;;;;;6.68;5.80;;;;;;;20.66;57.09;95457.63;5054041;28;20541;-71
2022/09/06 09:29:04;;;;;;;7.10;6.50;;;;;;;20.71;54.92;95450.81;5054368;28;20198;-72
2022/09/06 09:31:37;;;;;;;6.47;5.97;;;;;;;20.74;56.22;95452.78;5054260;28;20255;-72
2022/09/06 09:34:06;;;;;;;6.95;6.25;;;;;;;20.84;56.35;95449.09;5053909;28;20217;-71
2022/09/06 09:36:33;;;;;;;7.10;6.47;;;;;;;20.88;56.28;95450.69;5054747;28;20204;-71
2022/09/06 09:39:00;;;;;;;6.82;6.22;;;;;;;21.07;54.90;95442.97;5054729;28;20276;-71
2022/09/06 09:41:29;;;;;;;6.57;5.95;;;;;;;21.13;54.51;95438.47;5054458;28;20190;-72
2022/09/06 09:43:58;;;;;;;7.25;6.65;;;;;;;21.25;53.50;95440.00;5054030;28;20236;-71
2022/09/06 09:46:32;;;;;;;6.07;5.57;;;;;;;21.21;54.39;95436.44;5054541;28;20251;-72
2022/09/06 09:49:08;;;;;;;6.63;6.03;;;;;;;21.34;53.59;95441.16;5054723;28;20585;-71
2022/09/06 09:51:36;;;;;;;5.88;5.47;;;;;;;21.34;53.85;95440.34;5055029;28;20207;-71
2022/09/06 09:54:04;;;;;;;6.20;5.70;;;;;;;21.38;54.54;95427.88;5087613;28;20540;-71
2022/09/06 09:56:39;;;;;;;6.32;5.72;;;;;;;21.39;54.29;95431.50;5055145;28;20182;-71
2022/09/06 09:59:19;;;;;;;6.45;5.85;;;;;;;21.52;52.95;95428.97;5053770;28;20200;-71
2022/09/06 10:01:47;;;;;;;6.30;5.80;;;;;;;21.67;52.08;95426.81;5054167;28;20228;-71
2022/09/06 10:04:20;;;;;;;6.03;5.53;;;;;;;21.71;50.98;95425.56;5053848;28;20312;-71
2022/09/06 10:06:47;;;;;;;6.53;6.03;;;;;;;21.67;51.98;95430.41;5053987;28;20241;-71
2022/09/06 10:09:21;;;;;;;6.78;6.18;;;;;;;21.70;51.04;95421.16;5053843;28;20198;-71
2022/09/06 10:11:55;;;;;;;6.90;6.18;;;;;;;21.69;51.87;95416.00;5053891;28;20206;-71
2022/09/06 10:14:28;;;;;;;6.00;5.50;;;;;;;21.88;50.26;95415.38;5053582;28;20196;-72
2022/09/06 10:16:56;;;;;;;5.75;5.25;;;;;;;22.00;50.00;95416.84;5054081;28;20610;-72
2022/09/06 10:19:39;;;;;;;5.40;4.93;;;;;;;22.07;48.81;95413.94;5054868;28;20197;-72
2022/09/06 10:22:28;;;;;;;5.72;5.22;;;;;;;22.11;49.52;95411.88;5053522;28;20638;-71
2022/09/06 10:25:33;;;;;;;6.20;5.60;;;;;;;22.15;48.59;95400.63;5052136;28;20240;-71
2022/09/06 10:28:37;;;;;;;6.95;6.25;;;;;;;22.17;49.29;95403.84;5033134;28;20211;-71
2022/09/06 10:31:13;;;;;;;5.07;4.68;;;;;;;22.32;47.41;95400.41;5057669;28;20225;-71
2022/09/06 10:33:52;;;;;;;5.60;5.20;;;;;;;22.33;48.44;95402.03;5058429;28;20193;-71
2022/09/06 10:36:27;;;;;;;5.57;5.00;;;;;;;22.47;46.12;95398.19;5057609;28;20194;-71
2022/09/06 10:38:56;;;;;;;5.22;4.70;;;;;;;22.61;46.23;95402.03;5058469;28;20200;-71
2022/09/06 10:41:32;;;;;;;5.00;4.57;;;;;;;22.54;46.50;95388.88;5058171;28;20182;-71
2022/09/06 10:44:08;;;;;;;5.07;4.65;;;;;;;22.63;44.64;95391.19;5057245;28;20271;-71
2022/09/06 10:46:36;;;;;;;4.63;4.22;;;;;;;22.72;46.86;95385.81;5057804;28;20193;-71
2022/09/06 10:49:03;;;;;;;5.22;4.82;;;;;;;22.90;46.29;95396.78;5057821;28;20315;-71
2022/09/06 10:51:38;;;;;;;5.13;4.63;;;;;;;23.04;45.66;95388.16;5090961;28;20209;-71
2022/09/06 10:54:08;;;;;;;4.82;4.43;;;;;;;23.01;44.88;95383.38;5057028;28;20210;-71
2022/09/06 10:56:40;;;;;;;5.53;5.13;;;;;;;23.03;43.68;95387.38;5057668;28;20292;-71
2022/09/06 10:59:13;;;;;;;5.47;4.85;;;;;;;23.01;43.38;95380.56;5056981;28;20198;-71
2022/09/06 11:01:42;;;;;;;5.47;5.07;;;;;;;22.97;44.16;95377.03;5057100;28;20194;-71
2022/09/06 11:04:12;;;;;;;5.20;4.80;;;;;;;22.95;44.79;95371.84;5056775;28;20217;-71
2022/09/06 11:06:45;;;;;;;4.90;4.50;;;;;;;22.96;44.07;95373.44;5057743;28;20237;-71
2022/09/06 11:09:17;;;;;;;5.05;4.55;;;;;;;22.92;45.56;95372.69;5056646;28;20198;-71
2022/09/06 11:11:47;;;;;;;5.00;4.40;;;;;;;23.00;42.85;95374.16;5056685;28;20540;-71
2022/09/06 11:14:15;;;;;;;5.55;4.60;;;;;;;23.02;44.16;95368.09;5056392;28;20206;-72
2022/09/06 11:16:47;;;;;;;4.90;4.50;;;;;;;22.97;44.62;95371.41;5057624;28;20204;-72
2022/09/06 11:19:18;;;;;;;4.95;4.50;;;;;;;23.01;42.23;95367.31;5057648;28;20201;-72
2022/09/06 11:22:25;;;;;;;4.22;3.92;;;;;;;23.12;42.59;95369.94;5057538;28;20198;-72
2022/09/06 11:25:37;;;;;;;4.05;3.65;;;;;;;23.25;42.70;95361.69;5056597;28;20221;-71
2022/09/06 11:28:08;;;;;;;4.22;3.92;;;;;;;23.30;42.09;95364.81;5056535;28;20233;-71
2022/09/06 11:30:35;;;;;;;4.03;3.72;;;;;;;23.25;42.76;95354.06;5056440;28;20190;-72
2022/09/06 11:33:10;;;;;;;3.95;3.65;;;;;;;23.23;42.25;95361.31;5057502;28;20197;-72
2022/09/06 11:35:36;;;;;;;4.00;3.70;;;;;;;23.26;42.27;95357.66;5056122;28;20201;-72
2022/09/06 11:38:11;;;;;;;4.00;3.70;;;;;;;23.29;42.08;95356.81;5055370;28;20198;-72
2022/09/06 11:40:40;;;;;;;4.60;4.20;;;;;;;23.27;40.65;95345.97;5056634;28;20205;-73
2022/09/06 11:43:16;;;;;;;4.18;3.63;;;;;;;23.30;41.41;95342.28;5057419;28;20198;-72
2022/09/06 11:45:46;;;;;;;4.57;3.78;;;;;;;23.29;41.83;95335.06;5056112;28;20294;-72
2022/09/06 11:48:48;;;;;;;3.90;3.60;;;;;;;23.45;41.91;95348.44;5055708;28;20205;-72